Overview Statistics Trail Chart Weather Telemetry Raw packets
 

This is the latest recevied weather packets stored in our database for station/object OE5RBO. If no packets are shown the sender has not sent any weather packets the latest 10 day(s).

<< 2 3 4 5 6 7 8 >>
Time Temp. Humidity Pressure Rain* Wind** Luminosity Snow
1788597994 15.56° C 98% 1022.7 hPa 6.86 mm - - -
1788597394 15° C 99% 1022.8 hPa 6.86 mm - - -
1788596794 14.44° C 100% 1023 hPa 6.86 mm - - -
1788595592 13.89° C 100% 1022.9 hPa 6.86 mm - - -
1788594992 13.89° C 100% 1022.9 hPa 6.86 mm - - -
1788594392 13.89° C 100% 1022.7 hPa 6.86 mm - - -
1788593792 13.89° C 100% 1022.7 hPa 6.86 mm - - -
1788593191 13.89° C 100% 1022.5 hPa 6.86 mm - - -
1788592591 13.33° C 100% 1022.7 hPa 6.6 mm - - -
1788591990 13.89° C 100% 1022.3 hPa 6.6 mm - - -
1788591390 13.33° C 100% 1022 hPa 6.35 mm - - -
1788590790 13.89° C 100% 1022.1 hPa 5.33 mm - - -
1788588989 14.44° C 99% 1022.1 hPa 3.56 mm - - -
1788587788 14.44° C 97% 1022 hPa 1.27 mm - - -
1788587188 15° C 96% 1021.8 hPa 0.51 mm - - -
1788586587 16.11° C 91% 1021.2 hPa 0.25 mm - - -
1788585987 17.78° C 80% 1021.6 hPa 0 mm - - -
1788585386 18.33° C 76% 1020.2 hPa 0 mm - - -
1788584786 18.89° C 76% 1020.1 hPa 0 mm - - -
1788584185 19.44° C 81% 1019.8 hPa 0 mm - - -
1788583585 19.44° C 80% 1019.4 hPa 0 mm - - -
1788582985 19.44° C 82% 1019.2 hPa 0 mm - - -
1788582384 20° C 81% 1019.2 hPa 0 mm - - -
1788581784 20° C 79% 1019 hPa 0 mm - - -
1788581184 20° C 77% 1018.8 hPa 0 mm - - -

* Rain since midnight (hover to see other rain measurements)
** Current wind speed in m/s (hover to see current wind gust speed)